createdAt,value
2018-05-07T00:00:17.535Z,64.12
2018-05-07T00:02:45.097Z,64.05
2018-05-07T00:05:12.754Z,64.03
2018-05-07T00:07:40.285Z,63.83
2018-05-07T00:10:07.794Z,64.02
2018-05-07T00:12:35.292Z,64.12
2018-05-07T00:15:02.801Z,64.09
2018-05-07T00:17:30.296Z,64.56
2018-05-07T00:19:58.293Z,64.63
2018-05-07T00:22:25.778Z,66.50
2018-05-07T00:24:53.866Z,66.34
2018-05-07T00:27:21.345Z,67.25
2018-05-07T00:29:49.174Z,66.88
2018-05-07T00:32:17.034Z,67.87
2018-05-07T00:34:44.582Z,67.77
2018-05-07T00:37:12.085Z,68.04
2018-05-07T00:39:40.431Z,67.68
2018-05-07T00:42:07.921Z,68.14
2018-05-07T00:44:35.407Z,68.68
2018-05-07T00:47:02.926Z,68.46
2018-05-07T00:49:30.391Z,69.18
2018-05-07T00:51:59.049Z,69.43
2018-05-07T00:54:26.938Z,69.46
2018-05-07T00:56:54.489Z,69.95
2018-05-07T00:59:22.171Z,70.48
2018-05-07T01:01:49.734Z,69.45
2018-05-07T01:04:17.222Z,69.35
2018-05-07T01:06:44.736Z,69.42
2018-05-07T01:09:12.447Z,69.50
2018-05-07T01:11:40.003Z,69.46
2018-05-07T01:14:07.474Z,69.86
2018-05-07T01:16:36.764Z,69.57
2018-05-07T01:19:04.285Z,69.25
2018-05-07T01:21:31.794Z,68.63
2018-05-07T01:23:59.370Z,69.77
2018-05-07T01:26:26.879Z,69.82
2018-05-07T01:28:54.943Z,70.26
2018-05-07T01:31:22.477Z,70.83
2018-05-07T01:33:49.970Z,70.91
2018-05-07T01:36:17.471Z,71.08
2018-05-07T01:38:44.945Z,70.91
2018-05-07T01:41:12.446Z,70.86
2018-05-07T01:43:40.063Z,70.94
2018-05-07T01:46:07.602Z,70.78
2018-05-07T01:48:35.067Z,71.65
2018-05-07T01:51:02.549Z,73.14
2018-05-07T01:53:30.041Z,72.71
2018-05-07T01:55:57.553Z,72.60
2018-05-07T01:58:25.039Z,72.79
2018-05-07T02:00:52.513Z,72.04
2018-05-07T02:03:20.029Z,72.00
2018-05-07T02:05:47.533Z,71.99
2018-05-07T02:08:15.245Z,71.97
2018-05-07T02:10:42.706Z,72.62
2018-05-07T02:13:10.214Z,72.78
2018-05-07T02:15:38.086Z,73.10
2018-05-07T02:18:05.581Z,72.60
2018-05-07T02:20:33.999Z,72.73
2018-05-07T02:23:01.733Z,73.03
2018-05-07T02:25:29.481Z,72.88
2018-05-07T02:27:57.365Z,72.86
2018-05-07T02:30:24.853Z,72.93
2018-05-07T02:32:52.406Z,73.00
2018-05-07T02:35:19.896Z,73.22
2018-05-07T02:37:47.398Z,73.50
2018-05-07T02:40:14.859Z,73.78
2018-05-07T02:42:42.362Z,73.86
2018-05-07T02:45:09.826Z,74.12
2018-05-07T02:47:37.301Z,74.08
2018-05-07T02:50:04.771Z,74.25
2018-05-07T02:52:32.268Z,74.67
2018-05-07T02:54:59.735Z,74.68
2018-05-07T02:57:27.219Z,74.56
2018-05-07T02:59:54.690Z,74.67
2018-05-07T03:02:22.164Z,74.26
2018-05-07T03:04:49.625Z,73.90
2018-05-07T03:07:17.106Z,73.68
2018-05-07T03:09:44.562Z,73.90
2018-05-07T03:12:12.105Z,74.36
2018-05-07T03:14:39.569Z,74.94
2018-05-07T03:17:07.059Z,75.49
2018-05-07T03:19:34.530Z,76.20
2018-05-07T03:22:02.005Z,76.39
2018-05-07T03:24:29.462Z,76.63
2018-05-07T03:26:56.950Z,76.29
2018-05-07T03:29:24.412Z,75.95
2018-05-07T03:31:51.879Z,75.56
2018-05-07T03:34:19.362Z,75.20
2018-05-07T03:36:46.845Z,75.28
2018-05-07T03:39:14.330Z,75.69
2018-05-07T03:41:41.803Z,76.12
2018-05-07T03:44:09.338Z,76.68
2018-05-07T03:46:36.803Z,76.06
2018-05-07T03:49:04.287Z,76.43
2018-05-07T03:51:31.749Z,76.06
2018-05-07T03:53:59.288Z,76.18
2018-05-07T03:56:26.721Z,76.83
2018-05-07T03:58:54.202Z,76.90
2018-05-07T04:01:21.673Z,77.20
2018-05-07T04:03:49.178Z,77.54
2018-05-07T04:06:16.645Z,77.34
2018-05-07T04:08:44.118Z,77.81
2018-05-07T04:11:11.602Z,78.28
2018-05-07T04:13:39.062Z,78.82
2018-05-07T04:16:06.569Z,79.03
2018-05-07T04:18:45.907Z,78.97
2018-05-07T04:21:14.926Z,78.02
2018-05-07T04:24:05.153Z,77.97
2018-05-07T04:26:32.634Z,78.20
2018-05-07T04:29:00.090Z,78.08
2018-05-07T04:31:27.577Z,78.05
2018-05-07T04:33:55.033Z,77.60
2018-05-07T04:36:22.546Z,77.61
2018-05-07T04:38:50.002Z,77.44
2018-05-07T04:41:17.473Z,77.07
2018-05-07T04:43:44.953Z,76.85
2018-05-07T04:46:12.413Z,77.18
2018-05-07T04:48:39.902Z,76.67
2018-05-07T04:51:07.370Z,76.69
2018-05-07T04:53:34.850Z,76.68
2018-05-07T04:56:02.302Z,76.54
2018-05-07T04:58:29.787Z,76.44
2018-05-07T05:00:57.256Z,76.27
2018-05-07T05:03:24.759Z,75.95
2018-05-07T05:05:52.242Z,75.84
2018-05-07T05:08:19.725Z,75.45
2018-05-07T05:10:47.210Z,74.82
2018-05-07T05:13:14.678Z,74.63
2018-05-07T05:15:42.158Z,74.10
2018-05-07T05:18:09.610Z,72.67
2018-05-07T05:20:37.094Z,70.82
2018-05-07T05:23:04.579Z,70.18
2018-05-07T05:25:32.062Z,70.09
2018-05-07T05:27:59.533Z,69.08
2018-05-07T05:30:27.012Z,69.02
2018-05-07T05:32:54.485Z,69.00
2018-05-07T05:35:21.969Z,69.60
2018-05-07T05:37:49.426Z,69.61
2018-05-07T05:40:16.983Z,69.75
2018-05-07T05:42:44.459Z,68.60
2018-05-07T05:45:11.942Z,68.15
2018-05-07T05:47:39.573Z,68.03
2018-05-07T05:50:07.147Z,67.88
2018-05-07T05:52:34.530Z,68.30
2018-05-07T05:55:02.022Z,69.10
2018-05-07T05:57:29.485Z,70.61
2018-05-07T05:59:56.963Z,70.69
2018-05-07T06:02:24.421Z,70.04
2018-05-07T06:04:54.786Z,69.20
2018-05-07T06:07:22.257Z,68.64
2018-05-07T06:09:49.750Z,68.41
2018-05-07T06:12:17.218Z,67.33
2018-05-07T06:14:44.859Z,66.32
2018-05-07T06:17:12.242Z,66.33
2018-05-07T06:19:39.737Z,66.94
2018-05-07T06:22:07.196Z,66.29
2018-05-07T06:24:34.661Z,66.33
2018-05-07T06:27:02.146Z,66.56
2018-05-07T06:29:29.614Z,65.09
2018-05-07T06:31:57.090Z,63.12
2018-05-07T06:34:24.648Z,64.35
2018-05-07T06:36:52.113Z,63.54
2018-05-07T06:39:19.541Z,61.36
2018-05-07T06:41:47.039Z,61.09
2018-05-07T06:44:14.501Z,60.75
2018-05-07T06:46:42.000Z,58.35
2018-05-07T06:49:09.490Z,56.47
2018-05-07T06:51:36.970Z,57.04
2018-05-07T06:54:04.433Z,56.99
2018-05-07T06:56:31.909Z,55.87
2018-05-07T06:58:59.370Z,55.79
2018-05-07T07:01:26.851Z,55.64
2018-05-07T07:03:54.306Z,55.51
2018-05-07T07:06:21.834Z,55.58
2018-05-07T07:08:49.350Z,55.12
2018-05-07T07:11:17.049Z,53.71
2018-05-07T07:13:45.381Z,53.03
2018-05-07T07:16:12.902Z,53.12
2018-05-07T07:18:40.388Z,52.36
2018-05-07T07:21:08.093Z,52.69
2018-05-07T07:23:36.207Z,51.34
2018-05-07T07:26:04.206Z,51.96
2018-05-07T07:28:31.666Z,51.62
2018-05-07T07:30:59.214Z,51.28
2018-05-07T07:33:27.399Z,51.60
2018-05-07T07:35:55.043Z,50.63
2018-05-07T07:38:23.001Z,50.07
2018-05-07T07:40:50.506Z,48.87
2018-05-07T07:43:19.608Z,49.43
2018-05-07T07:45:47.134Z,48.82
2018-05-07T07:48:14.589Z,50.46
2018-05-07T07:50:42.079Z,48.86
2018-05-07T07:53:09.582Z,50.39
2018-05-07T07:55:37.386Z,49.18
2018-05-07T07:58:04.907Z,49.83
2018-05-07T08:00:32.404Z,48.09
2018-05-07T08:02:59.922Z,49.31
2018-05-07T08:05:27.807Z,50.89
2018-05-07T08:07:55.543Z,48.38
2018-05-07T08:10:23.001Z,48.74
2018-05-07T08:12:50.821Z,47.58
2018-05-07T08:15:18.535Z,48.42
2018-05-07T08:17:46.093Z,46.94
2018-05-07T08:20:13.582Z,47.20
2018-05-07T08:22:41.165Z,46.97
2018-05-07T08:25:08.697Z,45.86
2018-05-07T08:27:37.409Z,46.67
2018-05-07T08:30:05.217Z,47.03
2018-05-07T08:32:32.717Z,44.32
2018-05-07T08:35:00.655Z,47.72
2018-05-07T08:37:28.230Z,47.23
2018-05-07T08:39:56.138Z,46.78
2018-05-07T08:42:23.632Z,47.20
2018-05-07T08:44:51.170Z,45.80
2018-05-07T08:47:19.265Z,46.21
2018-05-07T08:49:47.041Z,44.32
2018-05-07T08:52:15.393Z,46.52
2018-05-07T08:54:43.422Z,44.89
2018-05-07T08:57:11.002Z,47.75
2018-05-07T08:59:38.732Z,45.71
2018-05-07T09:02:06.384Z,47.02
2018-05-07T09:04:34.365Z,46.03
2018-05-07T09:07:02.335Z,46.68
2018-05-07T09:09:30.751Z,45.72
2018-05-07T09:11:58.478Z,45.48
2018-05-07T09:14:25.932Z,46.19
2018-05-07T09:16:53.438Z,45.46
2018-05-07T09:19:20.951Z,43.41
2018-05-07T09:21:48.449Z,43.77
2018-05-07T09:24:15.977Z,42.16
2018-05-07T09:26:43.478Z,41.59
2018-05-07T09:29:10.982Z,41.31
2018-05-07T09:31:38.511Z,42.73
2018-05-07T09:34:06.021Z,41.45
2018-05-07T09:36:33.768Z,41.51
2018-05-07T09:39:01.690Z,42.85
2018-05-07T09:41:29.782Z,44.44
2018-05-07T09:43:57.646Z,44.02
2018-05-07T09:46:25.358Z,44.54
2018-05-07T09:48:53.845Z,42.51
2018-05-07T09:51:21.498Z,43.55
2018-05-07T09:53:49.007Z,44.05
2018-05-07T09:56:16.522Z,44.31
2018-05-07T09:58:55.979Z,45.35
2018-05-07T10:01:23.868Z,44.24
2018-05-07T10:03:51.364Z,44.86
2018-05-07T10:06:19.162Z,43.40
2018-05-07T10:08:46.690Z,43.04
2018-05-07T10:11:15.029Z,43.81
2018-05-07T10:13:42.510Z,42.57
2018-05-07T10:16:10.026Z,43.42
2018-05-07T10:18:37.543Z,42.48
2018-05-07T10:21:05.046Z,42.92
2018-05-07T10:23:32.907Z,41.21
2018-05-07T10:26:00.369Z,45.27
2018-05-07T10:28:27.946Z,44.59
2018-05-07T10:30:55.716Z,43.32
2018-05-07T10:33:23.405Z,42.53
2018-05-07T10:35:50.868Z,42.75
2018-05-07T10:38:18.354Z,42.09
2018-05-07T10:40:45.826Z,41.36
2018-05-07T10:43:13.349Z,41.35
2018-05-07T10:45:40.806Z,39.15
2018-05-07T10:48:08.338Z,39.15
2018-05-07T10:50:35.824Z,39.20
2018-05-07T10:53:03.554Z,40.65
2018-05-07T10:55:31.442Z,41.98
2018-05-07T10:57:58.960Z,40.96
2018-05-07T11:00:26.539Z,39.17
2018-05-07T11:02:54.055Z,38.32
2018-05-07T11:05:21.629Z,39.72
2018-05-07T11:07:49.179Z,40.19
2018-05-07T11:10:17.407Z,38.61
2018-05-07T11:12:44.912Z,38.61
2018-05-07T11:15:12.402Z,37.72
2018-05-07T11:17:39.861Z,37.10
2018-05-07T11:20:07.347Z,36.69
2018-05-07T11:22:34.815Z,38.06
2018-05-07T11:25:02.315Z,38.36
2018-05-07T11:27:29.770Z,38.58
2018-05-07T11:29:57.245Z,35.89
2018-05-07T11:32:25.633Z,40.09
2018-05-07T11:34:53.124Z,38.82
2018-05-07T11:37:20.596Z,39.26
2018-05-07T11:39:48.091Z,38.22
2018-05-07T11:42:15.556Z,36.14
2018-05-07T11:44:43.051Z,39.15
2018-05-07T11:47:10.514Z,37.78
2018-05-07T11:49:38.013Z,35.32
2018-05-07T11:52:05.482Z,37.21
2018-05-07T11:54:32.973Z,39.47
2018-05-07T11:57:00.441Z,36.42
2018-05-07T11:59:28.015Z,36.07
2018-05-07T12:01:55.473Z,35.55
2018-05-07T12:04:22.963Z,36.98
2018-05-07T12:06:50.426Z,34.83
2018-05-07T12:09:17.979Z,35.51
2018-05-07T12:11:45.443Z,35.07
2018-05-07T12:14:12.942Z,33.58
2018-05-07T12:16:40.419Z,37.17
2018-05-07T12:19:07.909Z,35.17
2018-05-07T12:21:35.370Z,34.50
2018-05-07T12:24:02.834Z,37.02
2018-05-07T12:26:30.317Z,33.13
2018-05-07T12:28:57.785Z,32.91
2018-05-07T12:31:25.359Z,33.76
2018-05-07T12:33:52.755Z,33.20
2018-05-07T12:36:20.231Z,34.96
2018-05-07T12:38:47.703Z,34.11
2018-05-07T12:41:15.188Z,32.97
2018-05-07T12:43:42.650Z,31.33
2018-05-07T12:46:10.138Z,33.57
2018-05-07T12:48:37.602Z,32.68
2018-05-07T12:51:05.082Z,32.67
2018-05-07T12:53:32.555Z,30.66
2018-05-07T12:56:00.029Z,31.88
2018-05-07T12:58:27.498Z,29.65
2018-05-07T13:00:54.987Z,30.39
2018-05-07T13:03:22.456Z,28.76
2018-05-07T13:05:49.949Z,27.28
2018-05-07T13:08:17.421Z,27.83
2018-05-07T13:10:44.907Z,25.18
2018-05-07T13:13:12.383Z,25.81
2018-05-07T13:15:39.865Z,21.80
2018-05-07T13:18:07.331Z,22.93
2018-05-07T13:20:34.841Z,21.85
2018-05-07T13:23:02.320Z,20.10
2018-05-07T13:25:30.234Z,20.70
2018-05-07T13:27:57.707Z,19.48
2018-05-07T13:30:25.190Z,19.87
2018-05-07T13:32:53.586Z,18.95
2018-05-07T13:35:21.096Z,20.00
2018-05-07T13:37:48.561Z,19.79
2018-05-07T13:40:16.042Z,18.79
2018-05-07T13:42:43.807Z,19.34
2018-05-07T13:45:11.285Z,16.81
2018-05-07T13:47:38.773Z,18.15
2018-05-07T13:50:06.239Z,17.48
2018-05-07T13:52:33.739Z,17.17
2018-05-07T13:55:01.207Z,17.70
2018-05-07T13:57:28.695Z,18.01
2018-05-07T13:59:56.250Z,19.18
2018-05-07T14:02:24.362Z,17.16
2018-05-07T14:04:51.837Z,18.92
2018-05-07T14:07:19.318Z,18.02
2018-05-07T14:09:46.796Z,18.46
2018-05-07T14:12:14.279Z,17.35
2018-05-07T14:14:41.746Z,16.66
2018-05-07T14:17:09.232Z,17.98
2018-05-07T14:19:36.949Z,17.30
2018-05-07T14:22:04.430Z,16.52
2018-05-07T14:24:31.886Z,15.50
2018-05-07T14:26:59.383Z,18.94
2018-05-07T14:29:26.854Z,18.44
2018-05-07T14:31:54.380Z,17.30
2018-05-07T14:34:21.856Z,16.34
2018-05-07T14:36:49.346Z,18.05
2018-05-07T14:39:16.805Z,22.55
2018-05-07T14:41:44.340Z,19.66
2018-05-07T14:44:11.874Z,19.77
2018-05-07T14:46:39.363Z,18.71
2018-05-07T14:49:06.829Z,19.53
2018-05-07T14:51:34.327Z,20.38
2018-05-07T14:54:01.796Z,20.39
2018-05-07T14:56:29.303Z,18.62
2018-05-07T14:58:56.775Z,18.50
2018-05-07T15:01:24.258Z,18.22
2018-05-07T15:03:51.718Z,18.71
2018-05-07T15:06:19.203Z,18.59
2018-05-07T15:08:46.678Z,20.62
2018-05-07T15:11:14.166Z,19.72
2018-05-07T15:13:41.685Z,19.38
2018-05-07T15:16:09.140Z,18.66
2018-05-07T15:18:36.630Z,20.38
2018-05-07T15:21:04.091Z,19.55
2018-05-07T15:23:31.587Z,18.63
2018-05-07T15:25:59.056Z,19.11
2018-05-07T15:28:26.538Z,18.62
2018-05-07T15:30:54.010Z,19.23
2018-05-07T15:33:21.499Z,19.33
2018-05-07T15:35:48.957Z,19.29
2018-05-07T15:38:16.446Z,18.16
2018-05-07T15:40:43.916Z,16.70
2018-05-07T15:43:11.406Z,15.73
2018-05-07T15:45:38.880Z,17.08
2018-05-07T15:48:06.390Z,19.13
2018-05-07T15:50:33.859Z,17.45
2018-05-07T15:53:01.349Z,18.63
2018-05-07T15:55:28.818Z,18.48
2018-05-07T15:57:56.310Z,16.90
2018-05-07T16:00:23.783Z,16.11
2018-05-07T16:02:51.447Z,16.28
2018-05-07T16:05:18.799Z,18.17
2018-05-07T16:07:47.126Z,18.25
2018-05-07T16:10:14.594Z,18.51
2018-05-07T16:12:42.092Z,17.28
2018-05-07T16:15:09.612Z,18.66
2018-05-07T16:17:37.062Z,17.04
2018-05-07T16:20:05.518Z,15.97
2018-05-07T16:22:33.035Z,17.39
2018-05-07T16:25:00.505Z,16.21
2018-05-07T16:27:28.029Z,17.45
2018-05-07T16:29:56.417Z,17.17
2018-05-07T16:32:23.942Z,18.36
2018-05-07T16:34:51.418Z,15.87
2018-05-07T16:37:18.881Z,15.13
2018-05-07T16:39:46.372Z,18.81
2018-05-07T16:42:13.841Z,18.29
2018-05-07T16:44:41.329Z,17.77
2018-05-07T16:47:08.793Z,17.62
2018-05-07T16:49:36.282Z,17.30
2018-05-07T16:52:03.756Z,17.28
2018-05-07T16:54:31.322Z,17.75
2018-05-07T16:56:58.806Z,18.20
2018-05-07T16:59:26.711Z,19.20
2018-05-07T17:01:54.177Z,18.63
2018-05-07T17:04:22.594Z,20.81
2018-05-07T17:06:50.078Z,24.65
2018-05-07T17:09:17.562Z,26.98
2018-05-07T17:11:45.038Z,30.05
2018-05-07T17:14:12.644Z,31.46
2018-05-07T17:16:40.043Z,33.95
2018-05-07T17:19:07.540Z,34.71
2018-05-07T17:21:35.198Z,35.34
2018-05-07T17:24:02.541Z,33.53
2018-05-07T17:26:30.011Z,36.83
2018-05-07T17:28:57.502Z,36.89
2018-05-07T17:31:24.966Z,37.89
2018-05-07T17:33:52.509Z,36.50
2018-05-07T17:36:19.982Z,35.81
2018-05-07T17:38:47.462Z,37.17
2018-05-07T17:41:14.930Z,37.24
2018-05-07T17:43:42.639Z,37.17
2018-05-07T17:46:18.790Z,37.02
2018-05-07T17:48:55.283Z,37.10
2018-05-07T17:51:22.753Z,38.63
2018-05-07T17:53:50.246Z,37.88
2018-05-07T17:56:17.712Z,39.57
2018-05-07T17:58:45.169Z,39.13
2018-05-07T18:01:12.656Z,38.69
2018-05-07T18:03:40.114Z,37.62
2018-05-07T18:06:07.611Z,33.55
2018-05-07T18:08:35.093Z,29.25
2018-05-07T18:11:03.430Z,26.48
2018-05-07T18:13:30.893Z,25.46
2018-05-07T18:15:58.374Z,25.78
2018-05-07T18:18:25.838Z,28.29
2018-05-07T18:20:53.310Z,30.15
2018-05-07T18:23:20.774Z,30.35
2018-05-07T18:25:48.254Z,32.43
2018-05-07T18:28:16.288Z,33.76
2018-05-07T18:30:43.773Z,35.64
2018-05-07T18:33:11.230Z,36.14
2018-05-07T18:35:38.713Z,37.17
2018-05-07T18:38:06.262Z,38.23
2018-05-07T18:40:33.659Z,40.65
2018-05-07T18:43:01.119Z,41.35
2018-05-07T18:45:28.610Z,41.92
2018-05-07T18:47:56.157Z,44.12
2018-05-07T18:50:25.504Z,45.35
2018-05-07T18:52:53.010Z,46.49
2018-05-07T18:55:20.489Z,46.97
2018-05-07T18:57:47.946Z,47.55
2018-05-07T19:00:15.426Z,48.62
2018-05-07T19:02:42.893Z,48.97
2018-05-07T19:05:10.377Z,49.48
2018-05-07T19:07:37.842Z,49.58
2018-05-07T19:10:05.337Z,50.77
2018-05-07T19:12:32.810Z,51.80
2018-05-07T19:15:00.293Z,52.52
2018-05-07T19:17:35.461Z,53.22
2018-05-07T19:20:02.948Z,53.29
2018-05-07T19:22:30.410Z,54.20
2018-05-07T19:24:57.901Z,55.23
2018-05-07T19:27:25.370Z,55.59
2018-05-07T19:29:52.865Z,55.17
2018-05-07T19:32:20.354Z,56.10
2018-05-07T19:34:47.890Z,56.90
2018-05-07T19:37:15.374Z,56.87
2018-05-07T19:39:42.841Z,57.68
2018-05-07T19:42:10.343Z,57.27
2018-05-07T19:44:37.826Z,57.81
2018-05-07T19:47:05.313Z,58.63
2018-05-07T19:49:32.771Z,59.12
2018-05-07T19:52:00.256Z,59.00
2018-05-07T19:54:27.722Z,59.44
2018-05-07T19:56:55.201Z,59.29
2018-05-07T19:59:22.667Z,59.55
2018-05-07T20:01:50.195Z,59.89
2018-05-07T20:04:17.653Z,60.02
2018-05-07T20:06:45.129Z,60.23
2018-05-07T20:09:12.633Z,60.57
2018-05-07T20:11:40.125Z,60.20
2018-05-07T20:14:07.659Z,60.04
2018-05-07T20:16:35.083Z,60.90
2018-05-07T20:19:02.556Z,61.30
2018-05-07T20:21:30.054Z,61.27
2018-05-07T20:23:57.520Z,61.68
2018-05-07T20:26:25.003Z,61.57
2018-05-07T20:28:52.469Z,62.21
2018-05-07T20:31:19.976Z,63.11
2018-05-07T20:33:47.461Z,63.32
2018-05-07T20:36:14.950Z,62.85
2018-05-07T20:38:42.418Z,63.26
2018-05-07T20:41:09.951Z,63.17
2018-05-07T20:43:37.394Z,62.91
2018-05-07T20:46:04.874Z,62.84
2018-05-07T20:48:32.337Z,64.24
2018-05-07T20:50:59.818Z,64.22
2018-05-07T20:53:27.284Z,64.27
2018-05-07T20:55:54.741Z,64.55
2018-05-07T20:58:22.272Z,64.61
2018-05-07T21:00:49.741Z,64.33
2018-05-07T21:03:17.221Z,64.94
2018-05-07T21:05:44.689Z,64.53
2018-05-07T21:08:12.178Z,64.87
2018-05-07T21:10:39.646Z,65.02
2018-05-07T21:13:07.129Z,65.20
2018-05-07T21:15:34.599Z,65.15
2018-05-07T21:18:02.088Z,67.02
2018-05-07T21:20:29.549Z,65.60
2018-05-07T21:22:58.982Z,65.31
2018-05-07T21:25:26.445Z,66.37
2018-05-07T21:27:53.948Z,67.80
2018-05-07T21:30:21.418Z,66.85
2018-05-07T21:32:48.901Z,66.53
2018-05-07T21:35:16.386Z,65.53
2018-05-07T21:37:43.866Z,66.07
2018-05-07T21:40:11.331Z,67.03
2018-05-07T21:42:38.817Z,65.80
2018-05-07T21:45:06.287Z,66.32
2018-05-07T21:47:33.768Z,66.38
2018-05-07T21:50:01.231Z,67.12
2018-05-07T21:52:28.726Z,67.09
2018-05-07T21:54:56.198Z,67.17
2018-05-07T21:57:23.702Z,67.09
2018-05-07T21:59:51.170Z,67.10
2018-05-07T22:02:18.716Z,67.17
2018-05-07T22:04:46.130Z,67.08
2018-05-07T22:07:13.609Z,67.37
2018-05-07T22:09:41.086Z,68.10
2018-05-07T22:12:08.570Z,68.30
2018-05-07T22:14:36.139Z,68.46
2018-05-07T22:17:03.610Z,68.80
2018-05-07T22:19:31.084Z,69.36
2018-05-07T22:21:58.560Z,69.08
2018-05-07T22:24:26.045Z,69.29
2018-05-07T22:26:53.511Z,68.93
2018-05-07T22:29:20.998Z,69.13
2018-05-07T22:31:48.457Z,69.08
2018-05-07T22:34:15.950Z,68.78
2018-05-07T22:36:43.413Z,69.05
2018-05-07T22:39:10.944Z,69.22
2018-05-07T22:41:38.381Z,69.24
2018-05-07T22:44:05.863Z,69.25
2018-05-07T22:46:33.336Z,70.46
2018-05-07T22:49:00.877Z,70.30
2018-05-07T22:51:28.313Z,70.45
2018-05-07T22:53:55.815Z,71.27
2018-05-07T22:56:23.294Z,70.52
2018-05-07T22:58:50.778Z,70.56
2018-05-07T23:01:18.246Z,70.87
2018-05-07T23:03:45.741Z,71.05
2018-05-07T23:06:13.219Z,70.78
2018-05-07T23:08:40.698Z,69.92
2018-05-07T23:11:08.177Z,69.45
2018-05-07T23:13:35.654Z,68.85
2018-05-07T23:16:03.118Z,69.00
2018-05-07T23:18:30.609Z,69.45
2018-05-07T23:20:58.069Z,69.76
2018-05-07T23:23:25.557Z,69.63
2018-05-07T23:25:53.014Z,69.52
2018-05-07T23:28:20.497Z,69.56
2018-05-07T23:30:47.966Z,69.69
2018-05-07T23:33:15.528Z,69.83
2018-05-07T23:35:43.001Z,70.13
2018-05-07T23:38:10.479Z,70.35
2018-05-07T23:40:37.981Z,69.75
2018-05-07T23:43:05.438Z,69.94
2018-05-07T23:45:32.927Z,69.69
2018-05-07T23:48:00.387Z,70.87
2018-05-07T23:50:27.874Z,71.54
2018-05-07T23:52:55.338Z,71.18
2018-05-07T23:55:22.818Z,69.66
2018-05-07T23:57:50.282Z,71.01
